Time,TemperatureF,DewpointF,PressureIn,WindDirection,WindDirectionDegrees,WindSpeedMPH,WindSpeedGustMPH,Humidity,HourlyPrecipIn,Conditions,Clouds,dailyrainin,SoftwareType,DateUTC
2013-09-22 00:04:00,63.7,63.3,29.77,North,0,0.0,0.0,99,0.00,,,0.00,meteobridge,2013-09-22 05:04:00,
2013-09-22 00:09:00,63.5,63.1,29.77,North,359,0.0,0.0,99,0.00,,,0.00,meteobridge,2013-09-22 05:09:00,
2013-09-22 00:14:00,63.1,62.8,29.77,North,359,0.0,0.0,99,0.00,,,0.00,meteobridge,2013-09-22 05:14:00,
2013-09-22 00:19:00,63.1,62.8,29.77,North,0,0.0,0.0,99,0.00,,,0.00,meteobridge,2013-09-22 05:19:00,
2013-09-22 00:24:00,63.0,62.6,29.77,North,0,0.0,0.0,99,0.00,,,0.00,meteobridge,2013-09-22 05:24:00,
2013-09-22 00:30:00,62.8,62.4,29.76,North,359,0.0,0.9,99,0.00,,,0.00,meteobridge,2013-09-22 05:30:00,
2013-09-22 00:35:00,62.8,62.4,29.76,North,0,0.0,0.0,99,0.00,,,0.00,meteobridge,2013-09-22 05:35:00,
2013-09-22 00:40:00,62.4,62.1,29.77,North,359,0.0,0.0,99,0.00,,,0.00,meteobridge,2013-09-22 05:40:00,
2013-09-22 00:45:00,62.2,61.9,29.77,North,0,0.0,0.0,99,0.00,,,0.00,meteobridge,2013-09-22 05:45:00,
2013-09-22 00:50:00,62.1,61.7,29.77,North,0,0.0,0.0,99,0.00,,,0.00,meteobridge,2013-09-22 05:50:00,
2013-09-22 00:55:00,62.1,61.7,29.77,North,359,0.0,0.0,99,0.00,,,0.00,meteobridge,2013-09-22 05:55:00,
2013-09-22 01:00:00,61.9,61.5,29.77,North,0,0.0,0.0,99,0.00,,,0.00,meteobridge,2013-09-22 06:00:00,
2013-09-22 01:05:00,61.5,61.0,29.78,North,359,0.0,0.0,98,0.00,,,0.00,meteobridge,2013-09-22 06:05:00,
2013-09-22 01:10:00,61.3,60.8,29.77,North,0,0.0,0.0,98,0.00,,,0.00,meteobridge,2013-09-22 06:10:00,
2013-09-22 01:15:00,61.3,61.0,29.77,North,0,0.0,0.0,99,0.00,,,0.00,meteobridge,2013-09-22 06:15:00,
2013-09-22 01:20:00,61.2,60.8,29.77,North,0,0.0,0.0,99,0.00,,,0.00,meteobridge,2013-09-22 06:20:00,
2013-09-22 01:25:00,61.2,60.8,29.77,North,0,0.0,0.0,99,0.00,,,0.00,meteobridge,2013-09-22 06:25:00,
2013-09-22 01:30:00,61.0,60.4,29.77,North,359,0.0,0.0,98,0.00,,,0.00,meteobridge,2013-09-22 06:30:00,
2013-09-22 01:35:00,61.0,60.6,29.77,North,0,0.0,0.0,99,0.00,,,0.00,meteobridge,2013-09-22 06:35:00,
2013-09-22 01:40:00,60.8,60.3,29.78,North,0,0.0,0.0,98,0.00,,,0.00,meteobridge,2013-09-22 06:40:00,
2013-09-22 01:45:00,60.6,60.1,29.77,North,0,0.0,0.0,98,0.00,,,0.00,meteobridge,2013-09-22 06:45:00,
2013-09-22 01:50:00,60.4,59.9,29.77,North,359,0.0,0.0,98,0.00,,,0.00,meteobridge,2013-09-22 06:50:00,
2013-09-22 01:56:00,60.3,59.7,29.77,North,359,0.0,0.0,98,0.00,,,0.00,meteobridge,2013-09-22 06:56:00,
2013-09-22 02:01:00,60.1,59.5,29.78,North,359,0.0,0.0,98,0.00,,,0.00,meteobridge,2013-09-22 07:01:00,
2013-09-22 02:06:00,59.9,59.4,29.78,North,359,0.0,0.0,98,0.00,,,0.00,meteobridge,2013-09-22 07:06:00,
2013-09-22 02:11:00,59.7,59.2,29.78,North,0,0.0,0.0,98,0.00,,,0.00,meteobridge,2013-09-22 07:11:00,
2013-09-22 02:16:00,59.7,59.2,29.77,North,359,0.0,0.0,98,0.00,,,0.00,meteobridge,2013-09-22 07:16:00,
2013-09-22 02:21:00,59.5,59.0,29.77,North,0,0.0,0.0,98,0.00,,,0.00,meteobridge,2013-09-22 07:21:00,
2013-09-22 02:26:00,59.5,59.0,29.77,North,359,0.0,0.0,98,0.00,,,0.00,meteobridge,2013-09-22 07:26:00,
2013-09-22 02:31:00,59.4,58.8,29.77,North,0,0.0,0.0,98,0.00,,,0.00,meteobridge,2013-09-22 07:31:00,
2013-09-22 02:36:00,59.4,59.0,29.77,North,0,0.0,0.0,99,0.00,,,0.00,meteobridge,2013-09-22 07:36:00,
2013-09-22 02:41:00,59.4,59.0,29.77,North,0,0.0,0.0,99,0.00,,,0.00,meteobridge,2013-09-22 07:41:00,
2013-09-22 02:46:00,59.2,58.8,29.77,North,0,0.0,0.0,99,0.00,,,0.00,meteobridge,2013-09-22 07:46:00,
2013-09-22 02:52:00,59.0,58.6,29.78,North,359,0.0,0.0,99,0.00,,,0.00,meteobridge,2013-09-22 07:52:00,
2013-09-22 02:57:00,58.8,58.3,29.78,North,359,0.0,0.0,98,0.00,,,0.00,meteobridge,2013-09-22 07:57:00,
2013-09-22 03:02:00,58.6,58.1,29.78,North,359,0.0,0.0,98,0.00,,,0.00,meteobridge,2013-09-22 08:02:00,
2013-09-22 03:07:00,58.5,57.9,29.78,North,0,0.0,0.0,98,0.00,,,0.00,meteobridge,2013-09-22 08:07:00,
2013-09-22 03:12:00,58.3,57.7,29.78,North,359,0.0,0.0,98,0.00,,,0.00,meteobridge,2013-09-22 08:12:00,
2013-09-22 03:17:00,58.3,57.9,29.78,North,0,0.0,0.0,99,0.00,,,0.00,meteobridge,2013-09-22 08:17:00,
2013-09-22 03:22:00,58.3,57.9,29.78,North,0,0.0,0.0,99,0.00,,,0.00,meteobridge,2013-09-22 08:22:00,
2013-09-22 03:27:00,58.1,57.7,29.78,North,0,0.0,0.0,99,0.00,,,0.00,meteobridge,2013-09-22 08:27:00,
2013-09-22 03:32:00,57.9,57.6,29.78,North,359,0.0,0.0,99,0.00,,,0.00,meteobridge,2013-09-22 08:32:00,
2013-09-22 03:37:00,57.9,57.6,29.78,North,359,0.0,0.0,99,0.00,,,0.00,meteobridge,2013-09-22 08:37:00,
2013-09-22 03:42:00,57.7,57.4,29.78,North,0,0.0,0.0,99,0.00,,,0.00,meteobridge,2013-09-22 08:42:00,
2013-09-22 03:47:00,57.6,57.0,29.78,North,0,0.0,0.0,98,0.00,,,0.00,meteobridge,2013-09-22 08:47:00,
2013-09-22 03:52:00,57.6,57.2,29.78,North,0,0.0,0.0,99,0.00,,,0.00,meteobridge,2013-09-22 08:52:00,
2013-09-22 03:57:00,57.4,57.0,29.78,North,0,0.0,0.0,99,0.00,,,0.00,meteobridge,2013-09-22 08:57:00,
2013-09-22 04:02:00,57.4,57.0,29.78,North,359,0.0,0.0,99,0.00,,,0.00,meteobridge,2013-09-22 09:02:00,
2013-09-22 04:08:00,57.0,56.7,29.78,North,0,0.0,0.0,99,0.00,,,0.00,meteobridge,2013-09-22 09:08:00,
2013-09-22 04:13:00,56.8,56.5,29.78,North,359,0.0,0.0,99,0.00,,,0.00,meteobridge,2013-09-22 09:13:00,
2013-09-22 04:18:00,56.8,56.5,29.78,North,0,0.0,0.0,99,0.00,,,0.00,meteobridge,2013-09-22 09:18:00,
2013-09-22 04:23:00,56.7,56.3,29.78,North,0,0.0,0.0,99,0.00,,,0.00,meteobridge,2013-09-22 09:23:00,
2013-09-22 04:28:00,56.5,56.1,29.78,North,0,0.0,0.0,99,0.00,,,0.00,meteobridge,2013-09-22 09:28:00,
2013-09-22 04:33:00,56.5,56.1,29.78,North,359,0.0,0.0,99,0.00,,,0.00,meteobridge,2013-09-22 09:33:00,
2013-09-22 04:38:00,56.1,55.8,29.78,North,359,0.0,0.0,99,0.00,,,0.00,meteobridge,2013-09-22 09:38:00,
2013-09-22 04:43:00,56.5,56.1,29.78,North,0,0.0,0.0,99,0.00,,,0.00,meteobridge,2013-09-22 09:43:00,
2013-09-22 04:48:00,56.3,55.9,29.79,North,359,0.0,0.0,99,0.00,,,0.00,meteobridge,2013-09-22 09:48:00,
2013-09-22 04:53:00,56.1,55.8,29.79,North,0,0.0,0.0,99,0.00,,,0.00,meteobridge,2013-09-22 09:53:00,
2013-09-22 04:59:00,55.8,55.4,29.79,North,0,0.0,0.0,99,0.00,,,0.00,meteobridge,2013-09-22 09:59:00,
2013-09-22 05:04:00,55.8,55.4,29.79,North,359,0.0,0.0,99,0.00,,,0.00,meteobridge,2013-09-22 10:04:00,
2013-09-22 05:09:00,55.6,55.2,29.79,North,0,0.0,0.0,99,0.00,,,0.00,meteobridge,2013-09-22 10:09:00,
2013-09-22 05:14:00,55.8,55.4,29.79,North,359,0.0,0.0,99,0.00,,,0.00,meteobridge,2013-09-22 10:14:00,
2013-09-22 05:19:00,55.6,55.2,29.79,North,359,0.0,0.0,99,0.00,,,0.00,meteobridge,2013-09-22 10:19:00,
2013-09-22 05:24:00,55.2,54.9,29.80,North,359,0.0,0.0,99,0.00,,,0.00,meteobridge,2013-09-22 10:24:00,
2013-09-22 05:29:00,55.2,54.9,29.80,North,359,0.0,0.0,99,0.00,,,0.00,meteobridge,2013-09-22 10:29:00,
2013-09-22 05:34:00,55.0,54.7,29.80,North,359,0.0,0.0,99,0.00,,,0.00,meteobridge,2013-09-22 10:34:00,
2013-09-22 05:39:00,54.9,54.5,29.80,North,0,0.0,0.0,99,0.00,,,0.00,meteobridge,2013-09-22 10:39:00,
2013-09-22 05:44:00,54.9,54.5,29.80,North,359,0.0,0.0,99,0.00,,,0.00,meteobridge,2013-09-22 10:44:00,
2013-09-22 05:49:00,55.0,54.7,29.80,North,0,0.0,0.0,99,0.00,,,0.00,meteobridge,2013-09-22 10:49:00,
2013-09-22 06:04:00,54.9,54.5,29.80,North,359,0.0,0.0,99,0.00,,,0.00,meteobridge,2013-09-22 11:04:00,
2013-09-22 06:09:00,54.9,54.5,29.80,North,0,0.0,0.0,99,0.00,,,0.00,meteobridge,2013-09-22 11:09:00,
2013-09-22 06:14:00,54.7,54.3,29.81,North,0,0.0,0.0,99,0.00,,,0.00,meteobridge,2013-09-22 11:14:00,
2013-09-22 06:19:00,54.5,54.1,29.81,North,359,0.0,0.0,99,0.00,,,0.00,meteobridge,2013-09-22 11:19:00,
2013-09-22 06:24:00,54.3,54.0,29.81,North,0,0.0,0.0,99,0.00,,,0.00,meteobridge,2013-09-22 11:24:00,
2013-09-22 06:29:00,54.3,54.0,29.81,North,359,0.0,0.0,99,0.00,,,0.00,meteobridge,2013-09-22 11:29:00,
2013-09-22 06:34:00,54.1,53.8,29.81,North,359,0.0,0.0,99,0.00,,,0.00,meteobridge,2013-09-22 11:34:00,
2013-09-22 06:39:00,54.0,53.6,29.81,North,0,0.0,0.0,99,0.00,,,0.00,meteobridge,2013-09-22 11:39:00,
2013-09-22 06:44:00,54.0,53.6,29.81,North,359,0.0,0.0,99,0.00,,,0.00,meteobridge,2013-09-22 11:44:00,
2013-09-22 06:49:00,53.8,53.4,29.81,North,0,0.0,0.0,99,0.00,,,0.00,meteobridge,2013-09-22 11:49:00,
2013-09-22 06:54:00,53.8,53.4,29.82,North,0,0.0,0.0,99,0.00,,,0.00,meteobridge,2013-09-22 11:54:00,
2013-09-22 06:59:00,53.6,53.2,29.82,North,0,0.0,0.0,99,0.00,,,0.00,meteobridge,2013-09-22 11:59:00,
2013-09-22 07:04:00,53.6,53.2,29.82,North,359,0.0,0.0,99,0.00,,,0.00,meteobridge,2013-09-22 12:04:00,
2013-09-22 07:09:00,53.8,53.4,29.82,North,0,0.0,0.0,99,0.00,,,0.00,meteobridge,2013-09-22 12:09:00,
2013-09-22 07:15:00,53.8,53.8,29.82,North,359,0.0,0.0,100,0.00,,,0.00,meteobridge,2013-09-22 12:15:00,
2013-09-22 07:20:00,54.0,54.0,29.82,North,0,0.0,0.0,100,0.00,,,0.00,meteobridge,2013-09-22 12:20:00,
2013-09-22 07:25:00,54.3,54.3,29.82,North,359,0.0,0.9,100,0.00,,,0.00,meteobridge,2013-09-22 12:25:00,
2013-09-22 07:30:00,54.5,54.5,29.82,North,359,0.0,0.0,100,0.00,,,0.00,meteobridge,2013-09-22 12:30:00,
2013-09-22 07:35:00,54.7,54.7,29.82,North,359,0.0,0.9,100,0.00,,,0.00,meteobridge,2013-09-22 12:35:00,
2013-09-22 07:40:00,54.9,54.9,29.82,North,8,0.0,0.0,100,0.00,,,0.00,meteobridge,2013-09-22 12:40:00,
2013-09-22 07:45:00,55.0,55.0,29.82,North,8,0.0,0.0,100,0.00,,,0.00,meteobridge,2013-09-22 12:45:00,
2013-09-22 07:50:00,55.2,55.2,29.83,North,8,0.0,0.0,100,0.00,,,0.00,meteobridge,2013-09-22 12:50:00,
2013-09-22 07:55:00,55.4,55.4,29.83,North,8,0.0,0.0,100,0.00,,,0.00,meteobridge,2013-09-22 12:55:00,
2013-09-22 08:00:00,55.8,55.8,29.83,North,8,0.0,0.0,100,0.00,,,0.00,meteobridge,2013-09-22 13:00:00,
2013-09-22 08:06:00,55.9,55.9,29.83,North,8,0.0,0.0,100,0.00,,,0.00,meteobridge,2013-09-22 13:06:00,
2013-09-22 08:11:00,56.5,56.5,29.83,North,8,0.0,2.0,100,0.00,,,0.00,meteobridge,2013-09-22 13:11:00,
2013-09-22 08:16:00,57.0,57.0,29.83,NNW,346,0.9,0.9,100,0.00,,,0.00,meteobridge,2013-09-22 13:16:00,
2013-09-22 08:21:00,57.4,57.4,29.83,NNW,338,0.9,4.0,100,0.00,,,0.00,meteobridge,2013-09-22 13:21:00,
2013-09-22 08:26:00,57.9,57.9,29.83,North,357,2.0,2.9,100,0.00,,,0.00,meteobridge,2013-09-22 13:26:00,
2013-09-22 08:31:00,58.6,58.3,29.83,North,8,0.9,2.0,99,0.00,,,0.00,meteobridge,2013-09-22 13:31:00,
2013-09-22 08:36:00,59.2,58.3,29.83,NNW,336,0.0,0.9,97,0.00,,,0.00,meteobridge,2013-09-22 13:36:00,
2013-09-22 08:41:00,59.5,58.5,29.83,North,6,0.0,0.9,96,0.00,,,0.00,meteobridge,2013-09-22 13:41:00,
2013-09-22 08:46:00,59.9,58.5,29.83,NNW,330,0.9,2.9,95,0.00,,,0.00,meteobridge,2013-09-22 13:46:00,
2013-09-22 08:51:00,60.3,58.5,29.83,NW,307,0.0,2.0,94,0.00,,,0.00,meteobridge,2013-09-22 13:51:00,
2013-09-22 08:56:00,60.6,58.3,29.83,NNE,25,2.0,2.0,92,0.00,,,0.00,meteobridge,2013-09-22 13:56:00,
2013-09-22 09:01:00,61.2,58.5,29.83,NNW,342,2.0,4.9,91,0.00,,,0.00,meteobridge,2013-09-22 14:01:00,
2013-09-22 09:06:00,61.3,58.6,29.83,NW,326,2.0,2.9,91,0.00,,,0.00,meteobridge,2013-09-22 14:06:00,
2013-09-22 09:12:00,61.7,58.8,29.83,NW,306,0.9,0.9,90,0.00,,,0.00,meteobridge,2013-09-22 14:12:00,
2013-09-22 09:17:00,62.1,58.5,29.83,NNW,328,4.0,4.9,88,0.00,,,0.00,meteobridge,2013-09-22 14:17:00,
2013-09-22 09:22:00,62.4,58.5,29.83,NNW,347,4.0,4.9,87,0.00,,,0.00,meteobridge,2013-09-22 14:22:00,
2013-09-22 09:27:00,63.0,58.6,29.83,NNW,335,2.0,4.0,86,0.00,,,0.00,meteobridge,2013-09-22 14:27:00,
2013-09-22 09:32:00,63.3,58.8,29.83,North,358,2.9,4.9,85,0.00,,,0.00,meteobridge,2013-09-22 14:32:00,
2013-09-22 09:37:00,63.9,59.0,29.83,North,1,2.0,6.0,84,0.00,,,0.00,meteobridge,2013-09-22 14:37:00,
2013-09-22 09:42:00,64.2,59.0,29.83,NNW,335,0.0,6.0,83,0.00,,,0.00,meteobridge,2013-09-22 14:42:00,
2013-09-22 09:47:00,64.6,59.4,29.83,North,0,2.0,4.0,83,0.00,,,0.00,meteobridge,2013-09-22 14:47:00,
2013-09-22 09:52:00,64.9,59.4,29.83,NNW,330,0.9,2.9,82,0.00,,,0.00,meteobridge,2013-09-22 14:52:00,
2013-09-22 09:57:00,65.1,59.5,29.83,SW,227,0.9,2.0,82,0.00,,,0.00,meteobridge,2013-09-22 14:57:00,
2013-09-22 10:02:00,65.7,60.1,29.83,NNW,335,2.9,4.0,82,0.00,,,0.00,meteobridge,2013-09-22 15:02:00,
2013-09-22 10:07:00,65.8,59.5,29.83,North,4,0.9,4.9,80,0.00,,,0.00,meteobridge,2013-09-22 15:07:00,
2013-09-22 10:12:00,66.2,60.3,29.83,NNW,343,4.9,4.9,81,0.00,,,0.00,meteobridge,2013-09-22 15:12:00,
2013-09-22 10:17:00,66.6,59.5,29.82,NNW,333,4.9,6.9,78,0.00,,,0.00,meteobridge,2013-09-22 15:17:00,
2013-09-22 10:22:00,66.7,59.7,29.82,NNE,18,2.0,4.0,78,0.00,,,0.00,meteobridge,2013-09-22 15:22:00,
2013-09-22 10:27:00,67.1,60.1,29.82,NNW,343,2.9,4.9,78,0.00,,,0.00,meteobridge,2013-09-22 15:27:00,
2013-09-22 10:32:00,67.5,60.1,29.82,NNW,343,2.9,4.9,77,0.00,,,0.00,meteobridge,2013-09-22 15:32:00,
2013-09-22 10:37:00,67.6,60.6,29.82,NW,312,2.0,4.9,78,0.00,,,0.00,meteobridge,2013-09-22 15:37:00,
2013-09-22 10:42:00,68.2,60.3,29.82,NW,322,0.9,4.9,76,0.00,,,0.00,meteobridge,2013-09-22 15:42:00,
2013-09-22 10:47:00,68.5,60.3,29.82,NNW,330,2.0,4.0,75,0.00,,,0.00,meteobridge,2013-09-22 15:47:00,
2013-09-22 10:52:00,68.9,60.6,29.81,NNW,327,2.0,4.0,75,0.00,,,0.00,meteobridge,2013-09-22 15:52:00,
2013-09-22 10:57:00,68.9,60.3,29.81,NNW,338,2.9,2.9,74,0.00,,,0.00,meteobridge,2013-09-22 15:57:00,
2013-09-22 11:02:00,69.3,60.3,29.81,NNW,345,4.0,4.9,73,0.00,,,0.00,meteobridge,2013-09-22 16:02:00,
2013-09-22 11:07:00,69.3,60.3,29.81,NNW,337,2.0,6.0,73,0.00,,,0.00,meteobridge,2013-09-22 16:07:00,
2013-09-22 11:13:00,70.0,61.0,29.81,North,8,2.0,6.9,73,0.00,,,0.00,meteobridge,2013-09-22 16:13:00,
2013-09-22 11:18:00,70.5,61.0,29.81,North,350,0.9,2.9,72,0.00,,,0.00,meteobridge,2013-09-22 16:18:00,
2013-09-22 11:23:00,71.1,60.8,29.81,North,350,4.9,6.0,70,0.00,,,0.00,meteobridge,2013-09-22 16:23:00,
2013-09-22 11:28:00,71.2,60.6,29.81,NNE,15,0.9,2.9,69,0.00,,,0.00,meteobridge,2013-09-22 16:28:00,
2013-09-22 11:33:00,71.8,61.0,29.81,North,0,4.9,6.0,69,0.00,,,0.00,meteobridge,2013-09-22 16:33:00,
2013-09-22 11:38:00,72.3,61.2,29.80,NNW,334,2.0,2.0,68,0.00,,,0.00,meteobridge,2013-09-22 16:38:00,
2013-09-22 11:43:00,72.9,61.3,29.80,SW,224,2.0,2.0,67,0.00,,,0.00,meteobridge,2013-09-22 16:43:00,
2013-09-22 11:48:00,73.6,61.2,29.80,North,8,2.0,4.0,65,0.00,,,0.00,meteobridge,2013-09-22 16:48:00,
2013-09-22 11:53:00,73.6,61.9,29.80,SW,236,0.9,0.9,67,0.00,,,0.00,meteobridge,2013-09-22 16:53:00,
2013-09-22 11:58:00,74.3,61.7,29.80,WSW,253,0.9,2.9,65,0.00,,,0.00,meteobridge,2013-09-22 16:58:00,
2013-09-22 12:03:00,74.3,61.3,29.80,North,356,4.0,6.0,64,0.00,,,0.00,meteobridge,2013-09-22 17:03:00,
2013-09-22 12:08:00,74.3,60.8,29.80,NW,325,0.9,4.9,63,0.00,,,0.00,meteobridge,2013-09-22 17:08:00,
2013-09-22 12:13:00,75.0,61.5,29.80,SE,127,0.9,2.9,63,0.00,,,0.00,meteobridge,2013-09-22 17:13:00,
2013-09-22 12:18:00,75.4,61.5,29.80,NNW,339,0.0,2.0,62,0.00,,,0.00,meteobridge,2013-09-22 17:18:00,
2013-09-22 12:23:00,75.7,60.8,29.79,NNW,348,0.0,4.0,60,0.00,,,0.00,meteobridge,2013-09-22 17:23:00,
2013-09-22 12:28:00,76.3,61.9,29.79,SW,219,0.0,2.0,61,0.00,,,0.00,meteobridge,2013-09-22 17:28:00,
2013-09-22 12:33:00,76.8,61.3,29.79,SE,145,0.0,2.0,59,0.00,,,0.00,meteobridge,2013-09-22 17:33:00,
2013-09-22 12:38:00,76.6,60.3,29.79,NW,323,2.0,4.9,57,0.00,,,0.00,meteobridge,2013-09-22 17:38:00,
2013-09-22 12:43:00,76.5,59.5,29.79,NNW,330,2.0,6.9,56,0.00,,,0.00,meteobridge,2013-09-22 17:43:00,
2013-09-22 12:48:00,76.5,61.0,29.78,NW,323,0.0,2.0,59,0.00,,,0.00,meteobridge,2013-09-22 17:48:00,
2013-09-22 12:53:00,76.6,59.7,29.78,NNW,343,0.0,4.0,56,0.00,,,0.00,meteobridge,2013-09-22 17:53:00,
2013-09-22 12:58:00,76.6,60.8,29.78,NNW,345,4.0,4.0,58,0.00,,,0.00,meteobridge,2013-09-22 17:58:00,
2013-09-22 13:03:00,77.0,61.5,29.78,SW,233,0.0,0.9,59,0.00,,,0.00,meteobridge,2013-09-22 18:03:00,
2013-09-22 13:08:00,78.3,61.7,29.77,North,353,2.9,4.9,57,0.00,,,0.00,meteobridge,2013-09-22 18:08:00,
2013-09-22 13:13:00,78.3,62.2,29.77,West,278,0.0,0.0,58,0.01,,,0.01,meteobridge,2013-09-22 18:13:00,
2013-09-22 13:18:00,78.3,60.3,29.77,North,1,0.0,2.0,54,0.01,,,0.01,meteobridge,2013-09-22 18:18:00,
2013-09-22 13:23:00,78.4,60.4,29.77,NNE,22,2.0,4.9,54,0.01,,,0.01,meteobridge,2013-09-22 18:23:00,
2013-09-22 13:28:00,79.2,61.5,29.76,WSW,246,0.0,0.0,55,0.01,,,0.01,meteobridge,2013-09-22 18:28:00,
2013-09-22 13:33:00,79.5,60.4,29.76,NNW,338,0.9,4.0,52,0.01,,,0.01,meteobridge,2013-09-22 18:33:00,
2013-09-22 13:39:00,79.9,62.2,29.76,North,353,0.0,2.9,55,0.01,,,0.01,meteobridge,2013-09-22 18:39:00,
2013-09-22 13:44:00,79.7,59.9,29.76,NW,307,0.9,4.9,51,0.01,,,0.01,meteobridge,2013-09-22 18:44:00,
2013-09-22 13:49:00,79.2,60.6,29.76,West,259,0.0,2.0,53,0.01,,,0.01,meteobridge,2013-09-22 18:49:00,
2013-09-22 13:54:00,79.7,58.8,29.76,NNW,347,2.9,4.0,49,0.01,,,0.01,meteobridge,2013-09-22 18:54:00,
2013-09-22 13:59:00,79.5,59.2,29.76,North,356,2.0,2.9,50,0.01,,,0.01,meteobridge,2013-09-22 18:59:00,
2013-09-22 14:04:00,79.5,58.6,29.76,NW,325,2.9,6.9,49,0.01,,,0.01,meteobridge,2013-09-22 19:04:00,
2013-09-22 14:09:00,79.2,57.7,29.76,NNW,335,2.0,2.9,48,0.00,,,0.01,meteobridge,2013-09-22 19:09:00,
2013-09-22 14:14:00,79.2,58.3,29.76,NNW,343,2.9,2.9,49,0.00,,,0.01,meteobridge,2013-09-22 19:14:00,
2013-09-22 14:19:00,79.3,59.0,29.76,NNW,343,2.0,4.0,50,0.00,,,0.01,meteobridge,2013-09-22 19:19:00,
2013-09-22 14:24:00,79.7,60.4,29.76,ENE,61,0.9,2.9,52,0.00,,,0.01,meteobridge,2013-09-22 19:24:00,
2013-09-22 14:29:00,80.1,58.6,29.76,NNE,23,0.9,4.0,48,0.00,,,0.01,meteobridge,2013-09-22 19:29:00,
2013-09-22 14:34:00,80.4,59.5,29.75,North,8,0.9,2.0,49,0.00,,,0.01,meteobridge,2013-09-22 19:34:00,
2013-09-22 14:39:00,80.8,58.1,29.75,NW,313,2.9,4.0,46,0.00,,,0.01,meteobridge,2013-09-22 19:39:00,
2013-09-22 14:44:00,80.2,57.6,29.75,WNW,302,0.9,2.0,46,0.00,,,0.01,meteobridge,2013-09-22 19:44:00,
2013-09-22 14:49:00,80.4,57.2,29.75,NNW,346,2.9,6.0,45,0.00,,,0.01,meteobridge,2013-09-22 19:49:00,
2013-09-22 14:54:00,80.2,57.0,29.75,NW,320,0.9,4.9,45,0.00,,,0.01,meteobridge,2013-09-22 19:54:00,
2013-09-22 14:59:00,80.6,55.4,29.75,NNE,13,2.0,4.0,42,0.00,,,0.01,meteobridge,2013-09-22 19:59:00,
2013-09-22 15:04:00,80.8,54.9,29.74,WNW,291,0.0,0.9,41,0.00,,,0.01,meteobridge,2013-09-22 20:04:00,
2013-09-22 15:09:00,81.7,57.6,29.74,NW,315,0.0,0.9,44,0.00,,,0.01,meteobridge,2013-09-22 20:09:00,
2013-09-22 15:14:00,82.0,59.9,29.74,North,5,2.0,2.0,47,0.00,,,0.01,meteobridge,2013-09-22 20:14:00,
2013-09-22 15:19:00,81.3,57.4,29.74,SE,143,0.0,2.9,44,0.00,,,0.01,meteobridge,2013-09-22 20:19:00,
2013-09-22 15:24:00,81.3,57.9,29.74,NW,323,2.0,2.0,45,0.00,,,0.01,meteobridge,2013-09-22 20:24:00,
2013-09-22 15:29:00,81.1,57.2,29.74,West,269,0.9,2.0,44,0.00,,,0.01,meteobridge,2013-09-22 20:29:00,
2013-09-22 15:34:00,81.3,56.7,29.74,West,269,0.0,2.9,43,0.00,,,0.01,meteobridge,2013-09-22 20:34:00,
2013-09-22 15:40:00,81.0,57.6,29.74,WNW,284,0.0,2.9,45,0.00,,,0.01,meteobridge,2013-09-22 20:40:00,
2013-09-22 15:45:00,81.0,57.6,29.74,NNW,348,2.0,2.9,45,0.00,,,0.01,meteobridge,2013-09-22 20:45:00,
2013-09-22 15:50:00,80.8,57.4,29.74,WNW,284,0.0,2.0,45,0.00,,,0.01,meteobridge,2013-09-22 20:50:00,
2013-09-22 15:55:00,80.2,57.0,29.74,NNW,329,2.0,4.0,45,0.00,,,0.01,meteobridge,2013-09-22 20:55:00,
2013-09-22 16:00:00,80.1,56.8,29.74,SSE,167,0.0,2.0,45,0.00,,,0.01,meteobridge,2013-09-22 21:00:00,
2013-09-22 16:05:00,79.5,56.8,29.74,NW,314,2.0,2.0,46,0.00,,,0.01,meteobridge,2013-09-22 21:05:00,
2013-09-22 16:10:00,79.3,57.4,29.74,NNW,333,2.0,2.9,47,0.00,,,0.01,meteobridge,2013-09-22 21:10:00,
2013-09-22 16:15:00,79.2,57.2,29.74,West,268,0.9,2.9,47,0.00,,,0.01,meteobridge,2013-09-22 21:15:00,
2013-09-22 16:20:00,78.6,56.1,29.74,SW,233,0.0,2.0,46,0.00,,,0.01,meteobridge,2013-09-22 21:20:00,
2013-09-22 16:25:00,78.4,57.2,29.74,North,8,4.0,4.0,48,0.00,,,0.01,meteobridge,2013-09-22 21:25:00,
2013-09-22 16:30:00,78.4,56.5,29.73,South,184,0.9,0.9,47,0.00,,,0.01,meteobridge,2013-09-22 21:30:00,
2013-09-22 16:35:00,78.1,55.0,29.73,NNW,348,2.9,4.0,45,0.00,,,0.01,meteobridge,2013-09-22 21:35:00,
2013-09-22 16:40:00,78.1,55.0,29.73,NNW,333,0.9,2.0,45,0.00,,,0.01,meteobridge,2013-09-22 21:40:00,
2013-09-22 16:45:00,77.7,55.2,29.73,WSW,245,0.0,0.9,46,0.00,,,0.01,meteobridge,2013-09-22 21:45:00,
2013-09-22 16:51:00,77.5,54.5,29.73,WNW,291,0.0,2.0,45,0.00,,,0.01,meteobridge,2013-09-22 21:51:00,
2013-09-22 16:56:00,77.5,55.0,29.73,NW,320,0.9,4.0,46,0.00,,,0.01,meteobridge,2013-09-22 21:56:00,
2013-09-22 17:01:00,77.7,55.2,29.73,NW,322,0.0,2.9,46,0.00,,,0.01,meteobridge,2013-09-22 22:01:00,
2013-09-22 17:06:00,77.7,55.2,29.73,NNW,333,0.9,4.9,46,0.00,,,0.01,meteobridge,2013-09-22 22:06:00,
2013-09-22 17:11:00,77.5,56.3,29.73,NW,325,2.0,2.9,48,0.00,,,0.01,meteobridge,2013-09-22 22:11:00,
2013-09-22 17:16:00,77.4,56.7,29.73,NNW,330,2.9,2.9,49,0.00,,,0.01,meteobridge,2013-09-22 22:16:00,
2013-09-22 17:21:00,77.4,57.2,29.73,NW,314,0.9,4.0,50,0.00,,,0.01,meteobridge,2013-09-22 22:21:00,
2013-09-22 17:26:00,77.2,57.0,29.73,NNW,336,0.0,2.0,50,0.00,,,0.01,meteobridge,2013-09-22 22:26:00,
2013-09-22 17:31:00,77.0,57.6,29.73,NNW,330,0.9,2.0,51,0.00,,,0.01,meteobridge,2013-09-22 22:31:00,
2013-09-22 17:37:00,76.8,57.4,29.73,NNW,335,0.9,2.9,51,0.00,,,0.01,meteobridge,2013-09-22 22:37:00,
2013-09-22 17:42:00,76.8,57.9,29.73,NNW,333,2.0,2.0,52,0.00,,,0.01,meteobridge,2013-09-22 22:42:00,
2013-09-22 17:47:00,76.6,58.3,29.73,North,358,0.9,0.9,53,0.00,,,0.01,meteobridge,2013-09-22 22:47:00,
2013-09-22 17:52:00,76.5,57.6,29.73,North,353,2.0,2.0,52,0.00,,,0.01,meteobridge,2013-09-22 22:52:00,
2013-09-22 17:57:00,76.3,58.5,29.73,NNW,340,0.9,2.0,54,0.00,,,0.01,meteobridge,2013-09-22 22:57:00,
2013-09-22 18:02:00,76.1,58.3,29.74,NNW,333,0.0,2.0,54,0.00,,,0.01,meteobridge,2013-09-22 23:02:00,
2013-09-22 18:07:00,75.9,58.6,29.74,NNW,333,0.0,2.0,55,0.00,,,0.01,meteobridge,2013-09-22 23:07:00,
2013-09-22 18:12:00,75.7,60.8,29.74,NNW,343,0.9,2.0,60,0.00,,,0.01,meteobridge,2013-09-22 23:12:00,
2013-09-22 18:17:00,75.4,61.0,29.74,NNW,343,0.9,2.0,61,0.00,,,0.01,meteobridge,2013-09-22 23:17:00,
2013-09-22 18:22:00,74.8,62.2,29.74,NNW,334,0.9,0.9,65,0.00,,,0.01,meteobridge,2013-09-22 23:22:00,
2013-09-22 18:27:00,74.1,62.4,29.75,NNW,335,0.0,0.0,67,0.00,,,0.01,meteobridge,2013-09-22 23:27:00,
2013-09-22 18:32:00,73.6,61.5,29.75,NNW,335,0.0,0.0,66,0.00,,,0.01,meteobridge,2013-09-22 23:32:00,
2013-09-22 18:37:00,73.0,61.9,29.75,NNW,333,0.0,0.0,68,0.00,,,0.01,meteobridge,2013-09-22 23:37:00,
2013-09-22 18:42:00,72.3,61.2,29.75,NNW,335,0.0,0.0,68,0.00,,,0.01,meteobridge,2013-09-22 23:42:00,
2013-09-22 18:47:00,71.8,61.0,29.75,NNW,334,0.9,0.9,69,0.00,,,0.01,meteobridge,2013-09-22 23:47:00,
2013-09-22 18:52:00,71.1,61.2,29.75,NNW,334,0.0,0.0,71,0.00,,,0.01,meteobridge,2013-09-22 23:52:00,
2013-09-22 18:57:00,70.5,61.5,29.75,NNW,334,0.0,0.0,73,0.00,,,0.01,meteobridge,2013-09-22 23:57:00,
2013-09-22 19:02:00,69.6,61.0,29.75,NNW,334,0.0,0.0,74,0.00,,,0.01,meteobridge,2013-09-23 00:02:00,
2013-09-22 19:07:00,69.1,60.8,29.75,NNW,337,0.0,0.0,75,0.00,,,0.01,meteobridge,2013-09-23 00:07:00,
2013-09-22 19:12:00,68.5,61.3,29.75,NNW,337,0.0,0.9,78,0.00,,,0.01,meteobridge,2013-09-23 00:12:00,
2013-09-22 19:17:00,68.2,61.0,29.75,NNW,337,0.0,0.0,78,0.00,,,0.01,meteobridge,2013-09-23 00:17:00,
2013-09-22 19:22:00,67.6,60.6,29.75,NNW,337,0.0,0.0,78,0.00,,,0.01,meteobridge,2013-09-23 00:22:00,
2013-09-22 19:27:00,67.1,60.8,29.76,NNW,338,0.0,0.0,80,0.00,,,0.01,meteobridge,2013-09-23 00:27:00,
2013-09-22 19:32:00,66.7,60.8,29.76,NNW,337,0.0,0.0,81,0.00,,,0.01,meteobridge,2013-09-23 00:32:00,
2013-09-22 19:37:00,66.7,60.8,29.76,NNW,337,0.0,0.9,81,0.00,,,0.01,meteobridge,2013-09-23 00:37:00,
2013-09-22 19:43:00,66.6,61.2,29.77,NNW,338,0.9,0.9,83,0.00,,,0.01,meteobridge,2013-09-23 00:43:00,
2013-09-22 19:48:00,66.4,61.0,29.77,NNW,338,0.0,0.0,83,0.00,,,0.01,meteobridge,2013-09-23 00:48:00,
2013-09-22 19:53:00,66.2,60.8,29.78,NNW,338,0.0,0.0,83,0.00,,,0.01,meteobridge,2013-09-23 00:53:00,
2013-09-22 19:58:00,66.0,61.0,29.78,NNW,338,0.0,0.0,84,0.00,,,0.01,meteobridge,2013-09-23 00:58:00,
2013-09-22 20:03:00,65.5,60.4,29.78,NNW,338,0.0,0.0,84,0.00,,,0.01,meteobridge,2013-09-23 01:03:00,
2013-09-22 20:08:00,65.1,60.4,29.78,NNW,338,0.0,0.0,85,0.00,,,0.01,meteobridge,2013-09-23 01:08:00,
2013-09-22 20:13:00,64.9,60.6,29.78,NNW,338,0.0,0.0,86,0.00,,,0.01,meteobridge,2013-09-23 01:13:00,
2013-09-22 20:18:00,64.6,60.3,29.78,NNW,337,0.0,0.0,86,0.00,,,0.01,meteobridge,2013-09-23 01:18:00,
2013-09-22 20:23:00,64.2,60.3,29.78,NNW,337,0.0,0.0,87,0.00,,,0.01,meteobridge,2013-09-23 01:23:00,
2013-09-22 20:28:00,64.0,60.4,29.79,NNW,337,0.0,0.0,88,0.00,,,0.01,meteobridge,2013-09-23 01:28:00,
2013-09-22 20:33:00,63.9,60.6,29.79,NNW,337,0.0,0.0,89,0.00,,,0.01,meteobridge,2013-09-23 01:33:00,
2013-09-22 20:38:00,63.7,60.4,29.79,NNW,337,0.0,0.0,89,0.00,,,0.01,meteobridge,2013-09-23 01:38:00,
2013-09-22 20:43:00,63.7,60.4,29.79,NNW,338,0.0,0.0,89,0.00,,,0.01,meteobridge,2013-09-23 01:43:00,
2013-09-22 20:48:00,63.5,60.3,29.79,NNW,338,0.0,0.0,89,0.00,,,0.01,meteobridge,2013-09-23 01:48:00,
2013-09-22 20:53:00,63.3,60.1,29.80,NNW,338,0.0,0.0,89,0.00,,,0.01,meteobridge,2013-09-23 01:53:00,
2013-09-22 20:58:00,63.1,60.4,29.80,NNW,338,0.0,0.0,91,0.00,,,0.01,meteobridge,2013-09-23 01:58:00,
2013-09-22 21:03:00,63.1,60.8,29.80,NNW,338,0.0,0.0,92,0.00,,,0.01,meteobridge,2013-09-23 02:03:00,
2013-09-22 21:08:00,63.1,61.2,29.80,NNW,337,0.0,0.0,93,0.00,,,0.01,meteobridge,2013-09-23 02:08:00,
2013-09-22 21:13:00,63.1,61.2,29.80,NNW,338,0.0,0.0,93,0.00,,,0.01,meteobridge,2013-09-23 02:13:00,
2013-09-22 21:18:00,63.0,61.0,29.80,NNW,338,0.0,0.0,93,0.00,,,0.01,meteobridge,2013-09-23 02:18:00,
2013-09-22 21:24:00,62.8,61.0,29.81,NNW,337,0.0,0.0,94,0.00,,,0.01,meteobridge,2013-09-23 02:24:00,
2013-09-22 21:29:00,62.8,61.3,29.81,NNW,338,0.0,0.0,95,0.00,,,0.01,meteobridge,2013-09-23 02:29:00,
2013-09-22 21:34:00,62.8,61.3,29.81,NNW,337,0.0,0.0,95,0.00,,,0.01,meteobridge,2013-09-23 02:34:00,
2013-09-22 21:39:00,62.6,61.2,29.81,NNW,333,0.0,0.0,95,0.00,,,0.01,meteobridge,2013-09-23 02:39:00,
2013-09-22 21:44:00,62.4,61.0,29.81,NNW,333,0.0,0.0,95,0.00,,,0.01,meteobridge,2013-09-23 02:44:00,
2013-09-22 21:49:00,62.2,60.8,29.81,NNW,333,0.0,0.0,95,0.00,,,0.01,meteobridge,2013-09-23 02:49:00,
2013-09-22 21:54:00,62.2,61.2,29.82,NNW,333,0.0,0.0,96,0.00,,,0.01,meteobridge,2013-09-23 02:54:00,
2013-09-22 21:59:00,62.2,61.2,29.82,NNW,333,0.0,0.0,96,0.00,,,0.01,meteobridge,2013-09-23 02:59:00,
2013-09-22 22:04:00,62.1,61.0,29.82,NNW,333,0.0,0.0,96,0.00,,,0.01,meteobridge,2013-09-23 03:04:00,
2013-09-22 22:09:00,62.1,61.0,29.82,NNW,333,0.0,0.0,96,0.00,,,0.01,meteobridge,2013-09-23 03:09:00,
2013-09-22 22:14:00,61.7,60.6,29.82,NNW,331,0.0,0.0,96,0.00,,,0.01,meteobridge,2013-09-23 03:14:00,
2013-09-22 22:19:00,61.5,60.4,29.82,NNW,333,0.0,0.0,96,0.00,,,0.01,meteobridge,2013-09-23 03:19:00,
2013-09-22 22:24:00,61.3,60.3,29.82,NNW,331,0.0,0.0,96,0.00,,,0.01,meteobridge,2013-09-23 03:24:00,
2013-09-22 22:30:00,61.2,60.1,29.82,NNW,332,0.0,0.0,96,0.00,,,0.01,meteobridge,2013-09-23 03:30:00,
2013-09-22 22:35:00,61.2,60.1,29.82,NNW,333,0.0,0.0,96,0.00,,,0.01,meteobridge,2013-09-23 03:35:00,
2013-09-22 22:40:00,61.0,59.9,29.83,NNW,331,0.0,0.0,96,0.00,,,0.01,meteobridge,2013-09-23 03:40:00,
2013-09-22 22:45:00,61.0,59.9,29.82,NNW,333,0.0,0.0,96,0.00,,,0.01,meteobridge,2013-09-23 03:45:00,
2013-09-22 22:50:00,61.0,59.9,29.83,NNW,333,0.0,0.0,96,0.00,,,0.01,meteobridge,2013-09-23 03:50:00,
2013-09-22 22:55:00,61.0,60.1,29.83,NNW,333,0.0,0.0,97,0.00,,,0.01,meteobridge,2013-09-23 03:55:00,
2013-09-22 23:00:00,60.6,59.5,29.83,NNW,333,0.0,0.0,96,0.00,,,0.01,meteobridge,2013-09-23 04:00:00,
2013-09-22 23:01:00,60.6,59.5,29.83,NNW,333,0.0,0.0,96,0.00,,,0.01,meteobridge,2013-09-23 04:01:00,
2013-09-22 23:04:00,60.6,59.5,29.83,NNW,333,0.0,0.0,96,0.00,,,0.01,meteobridge,2013-09-23 04:04:00,
2013-09-22 23:09:00,60.4,59.4,29.83,NNW,333,0.0,0.0,96,0.00,,,0.01,meteobridge,2013-09-23 04:09:00,
2013-09-22 23:14:00,60.3,59.2,29.83,NNW,333,0.0,0.0,96,0.00,,,0.01,meteobridge,2013-09-23 04:14:00,
2013-09-22 23:20:00,60.3,59.4,29.83,NNW,333,0.0,0.0,97,0.00,,,0.01,meteobridge,2013-09-23 04:20:00,
2013-09-22 23:25:00,60.3,59.4,29.83,NNW,333,0.0,0.0,97,0.00,,,0.01,meteobridge,2013-09-23 04:25:00,
2013-09-22 23:30:00,60.1,59.2,29.82,NNW,333,0.0,0.0,97,0.00,,,0.01,meteobridge,2013-09-23 04:30:00,
2013-09-22 23:35:00,60.1,59.2,29.82,NNW,333,0.0,0.0,97,0.00,,,0.01,meteobridge,2013-09-23 04:35:00,
2013-09-22 23:40:00,60.1,59.2,29.82,NNW,333,0.0,0.0,97,0.00,,,0.01,meteobridge,2013-09-23 04:40:00,
2013-09-22 23:46:00,60.1,59.2,29.82,NNW,331,0.0,0.0,97,0.00,,,0.01,meteobridge,2013-09-23 04:46:00,
2013-09-22 23:51:00,59.9,59.0,29.82,NNW,331,0.0,0.0,97,0.00,,,0.01,meteobridge,2013-09-23 04:51:00,
2013-09-22 23:56:00,59.9,59.0,29.82,NNW,332,0.0,0.0,97,0.00,,,0.01,meteobridge,2013-09-23 04:56:00,